Time;durP1;ratioP1;P1;durP2;ratioP2;P2;SDS_P1;SDS_P2;PMS_P1;PMS_P2;Temp;Humidity;BMP_temperature;BMP_pressure;BME280_temperature;BME280_humidity;BME280_pressure;Samples;Min_cycle;Max_cycle;Signal;HPM_P1;HPM_P2
2022/08/01 00:02:04;;;;;;;25.20;16.95;;;;;;;18.26;100.00;101465.25;5256562;28;20036;-68
2022/08/01 00:04:35;;;;;;;27.20;17.05;;;;;;;18.29;100.00;101468.47;5253148;28;20093;-68
2022/08/01 00:07:06;;;;;;;26.02;16.75;;;;;;;18.27;100.00;101464.25;5255255;28;20031;-67
2022/08/01 00:09:38;;;;;;;24.95;16.90;;;;;;;18.32;100.00;101464.63;5257733;28;20109;-67
2022/08/01 00:12:10;;;;;;;24.90;16.88;;;;;;;18.22;100.00;101462.84;5255808;28;20120;-67
2022/08/01 00:14:41;;;;;;;20.65;16.60;;;;;;;18.23;100.00;101467.22;5257643;28;20028;-67
2022/08/01 00:17:12;;;;;;;24.33;16.60;;;;;;;18.23;100.00;101480.75;5259143;28;20060;-67
2022/08/01 00:19:43;;;;;;;26.45;17.73;;;;;;;18.21;100.00;101466.53;5263144;28;20037;-67
2022/08/01 00:22:15;;;;;;;28.08;16.83;;;;;;;18.29;100.00;101473.88;5264755;28;20467;-67
2022/08/01 00:24:46;;;;;;;27.73;18.48;;;;;;;18.22;100.00;101465.56;5257914;28;20470;-68
2022/08/01 00:27:17;;;;;;;31.98;18.30;;;;;;;18.27;100.00;101465.09;5255796;28;20460;-67
2022/08/01 00:29:48;;;;;;;28.35;17.88;;;;;;;18.22;100.00;101473.66;5250240;28;20036;-68
2022/08/01 00:32:20;;;;;;;30.00;18.58;;;;;;;18.26;100.00;101470.66;5253914;28;20036;-68
2022/08/01 00:34:51;;;;;;;31.73;18.45;;;;;;;18.22;100.00;101478.22;5252089;28;21370;-68
2022/08/01 00:37:22;;;;;;;29.25;17.92;;;;;;;18.25;100.00;101468.94;5259556;28;20497;-68
2022/08/01 00:39:54;;;;;;;26.95;17.55;;;;;;;18.21;100.00;101474.63;5260635;28;20214;-68
2022/08/01 00:42:25;;;;;;;29.75;18.52;;;;;;;18.20;100.00;101481.06;5259369;28;20024;-67
2022/08/01 00:44:56;;;;;;;29.80;17.73;;;;;;;18.22;100.00;101473.66;5259635;28;20024;-67
2022/08/01 00:47:28;;;;;;;28.40;18.08;;;;;;;18.26;100.00;101473.38;5264078;28;20024;-67
2022/08/01 00:49:59;;;;;;;28.38;19.13;;;;;;;18.17;100.00;101481.34;5259740;28;20029;-68
2022/08/01 00:52:32;;;;;;;27.67;17.80;;;;;;;18.22;100.00;101483.63;5257311;28;20033;-67
2022/08/01 00:55:03;;;;;;;31.88;18.88;;;;;;;18.23;100.00;101479.91;5250895;28;20482;-67
2022/08/01 00:57:35;;;;;;;31.17;18.98;;;;;;;18.26;100.00;101485.00;5253509;28;20059;-67
2022/08/01 01:00:07;;;;;;;32.05;18.42;;;;;;;18.17;100.00;101478.66;5250550;28;20425;-67
2022/08/01 01:02:39;;;;;;;30.90;19.13;;;;;;;18.17;100.00;101484.06;5255260;28;20032;-67
2022/08/01 01:05:10;;;;;;;33.13;19.38;;;;;;;18.17;100.00;101491.31;5254247;28;20056;-67
2022/08/01 01:07:54;;;;;;;36.20;20.13;;;;;;;18.15;100.00;101488.75;5252560;28;20119;-67
2022/08/01 01:10:44;;;;;;;32.50;19.80;;;;;;;18.13;100.00;101482.66;5252461;28;20025;-67
2022/08/01 01:13:23;;;;;;;30.15;19.65;;;;;;;18.16;100.00;101487.78;5252011;28;20032;-67
2022/08/01 01:16:15;;;;;;;34.38;21.88;;;;;;;18.12;100.00;101486.38;5257405;28;20032;-67
2022/08/01 01:19:00;;;;;;;37.95;21.63;;;;;;;18.14;100.00;101492.47;5262023;28;20036;-68
2022/08/01 01:22:00;;;;;;;38.25;20.88;;;;;;;18.08;100.00;101487.66;5261514;28;20052;-69
2022/08/01 01:24:52;;;;;;;35.72;21.58;;;;;;;18.09;100.00;101483.97;5251852;28;20025;-67
2022/08/01 01:27:45;;;;;;;41.60;21.15;;;;;;;18.09;100.00;101477.72;5252196;28;20037;-68
2022/08/01 01:30:16;;;;;;;34.58;20.30;;;;;;;18.03;100.00;101480.03;5253430;28;20032;-67
2022/08/01 01:32:49;;;;;;;32.53;20.33;;;;;;;17.98;100.00;101482.31;5253512;28;20423;-67
2022/08/01 01:35:25;;;;;;;33.80;19.50;;;;;;;17.96;100.00;101478.91;5249455;28;20028;-68
2022/08/01 01:38:19;;;;;;;30.42;19.33;;;;;;;17.95;100.00;101477.22;5253758;28;20159;-68
2022/08/01 01:40:52;;;;;;;27.33;18.23;;;;;;;17.94;100.00;101471.97;5251117;28;20043;-67
2022/08/01 01:43:25;;;;;;;32.80;18.90;;;;;;;17.90;100.00;101481.38;5264064;28;20036;-67
2022/08/01 01:45:56;;;;;;;30.65;18.70;;;;;;;17.91;100.00;101483.06;5256742;28;20407;-67
2022/08/01 01:48:28;;;;;;;30.08;16.55;;;;;;;17.88;100.00;101469.88;5261376;28;20027;-67
2022/08/01 01:51:01;;;;;;;29.17;17.30;;;;;;;17.80;100.00;101468.75;5256614;28;20036;-67
2022/08/01 01:53:34;;;;;;;30.10;17.08;;;;;;;17.86;100.00;101466.47;5254334;28;20865;-67
2022/08/01 01:56:06;;;;;;;28.85;16.95;;;;;;;17.81;100.00;101473.16;5261706;28;20020;-67
2022/08/01 01:58:39;;;;;;;24.70;15.90;;;;;;;17.81;100.00;101472.28;5256265;28;20045;-67
2022/08/01 02:01:11;;;;;;;25.45;16.10;;;;;;;17.84;100.00;101469.31;5258300;28;20033;-67
2022/08/01 02:03:43;;;;;;;25.23;15.88;;;;;;;17.82;100.00;101472.13;5254067;28;20033;-67
2022/08/01 02:06:15;;;;;;;26.80;16.58;;;;;;;17.90;100.00;101474.13;5261210;28;20028;-67
2022/08/01 02:08:47;;;;;;;29.88;17.33;;;;;;;17.83;100.00;101479.25;5270225;28;20135;-67
2022/08/01 02:11:23;;;;;;;24.77;16.35;;;;;;;17.88;100.00;101476.13;5254288;28;20028;-71
2022/08/01 02:14:00;;;;;;;29.27;16.45;;;;;;;17.97;100.00;101477.09;5267028;28;20195;-69
2022/08/01 02:16:35;;;;;;;25.70;15.88;;;;;;;18.00;100.00;101480.31;5254585;28;20056;-68
2022/08/01 02:19:07;;;;;;;23.70;15.38;;;;;;;18.00;100.00;101474.91;5259873;28;20032;-68
2022/08/01 02:21:45;;;;;;;26.08;16.70;;;;;;;17.92;100.00;101474.81;5256218;28;20344;-68
2022/08/01 02:24:41;;;;;;;24.58;16.35;;;;;;;17.95;100.00;101479.94;5264859;28;20048;-68
2022/08/01 02:27:19;;;;;;;27.92;16.85;;;;;;;17.98;100.00;101468.81;5267144;28;20414;-68
2022/08/01 02:29:59;;;;;;;25.92;15.93;;;;;;;17.94;100.00;101469.28;5262205;28;20032;-68
2022/08/01 02:32:36;;;;;;;25.33;15.98;;;;;;;18.01;100.00;101473.09;5271357;28;20058;-67
2022/08/01 02:35:13;;;;;;;25.25;15.20;;;;;;;18.00;100.00;101485.72;5268997;28;20043;-67
2022/08/01 02:37:46;;;;;;;27.13;16.92;;;;;;;18.05;100.00;101482.56;5265736;28;20032;-67
2022/08/01 02:40:18;;;;;;;25.23;16.65;;;;;;;17.96;100.00;101473.50;5261317;28;20036;-68
2022/08/01 02:42:52;;;;;;;25.48;16.58;;;;;;;17.92;100.00;101471.28;5258859;28;20063;-68
2022/08/01 02:45:25;;;;;;;24.27;16.05;;;;;;;17.92;100.00;101477.53;5262452;28;20040;-67
2022/08/01 02:48:01;;;;;;;27.05;17.75;;;;;;;17.90;100.00;101467.88;5269458;28;20419;-67
2022/08/01 02:50:34;;;;;;;25.02;16.08;;;;;;;17.90;100.00;101473.28;5264689;28;20111;-67
2022/08/01 02:53:09;;;;;;;25.00;16.25;;;;;;;17.92;100.00;101471.28;5259269;28;20052;-67
2022/08/01 02:55:44;;;;;;;24.38;16.92;;;;;;;17.91;100.00;101485.75;5252824;28;20024;-67
2022/08/01 02:58:18;;;;;;;25.20;16.05;;;;;;;18.04;100.00;101486.25;5252601;28;20040;-67
2022/08/01 03:00:50;;;;;;;27.48;16.67;;;;;;;17.93;100.00;101478.34;5264787;28;20033;-67
2022/08/01 03:03:23;;;;;;;29.63;17.52;;;;;;;17.95;100.00;101474.53;5255635;28;20403;-67
2022/08/01 03:05:55;;;;;;;28.77;17.70;;;;;;;17.97;100.00;101487.88;5254506;28;20024;-67
2022/08/01 03:08:28;;;;;;;28.20;16.73;;;;;;;17.98;100.00;101479.59;5258300;28;20032;-67
2022/08/01 03:11:01;;;;;;;28.63;17.45;;;;;;;17.97;100.00;101483.31;5269107;28;20591;-67
2022/08/01 03:13:33;;;;;;;28.67;17.27;;;;;;;18.06;100.00;101481.56;5252997;28;20024;-67
2022/08/01 03:16:05;;;;;;;29.17;17.42;;;;;;;17.99;100.00;101472.38;5252099;28;20573;-67
2022/08/01 03:18:38;;;;;;;25.48;17.15;;;;;;;17.98;100.00;101481.47;5259897;28;20036;-67
2022/08/01 03:21:11;;;;;;;27.25;17.67;;;;;;;17.98;100.00;101476.91;5262584;28;20120;-67
2022/08/01 03:23:45;;;;;;;26.45;16.92;;;;;;;18.03;100.00;101484.56;5254222;28;21651;-67
2022/08/01 03:26:18;;;;;;;28.05;17.60;;;;;;;17.98;100.00;101493.13;5252812;28;20040;-67
2022/08/01 03:28:52;;;;;;;27.97;18.03;;;;;;;17.98;100.00;101486.88;5252727;28;20123;-67
2022/08/01 03:31:25;;;;;;;27.13;16.85;;;;;;;17.99;100.00;101488.59;5251884;28;20294;-68
2022/08/01 03:33:56;;;;;;;27.77;17.15;;;;;;;18.01;100.00;101490.13;5258532;28;20395;-67
2022/08/01 03:36:30;;;;;;;28.45;18.10;;;;;;;18.03;100.00;101487.28;5253153;28;20025;-67
2022/08/01 03:39:05;;;;;;;26.52;17.27;;;;;;;18.14;100.00;101487.06;5285240;28;20032;-67
2022/08/01 03:41:43;;;;;;;29.38;17.60;;;;;;;18.08;100.00;101481.41;5254283;28;20028;-68
2022/08/01 03:44:18;;;;;;;26.40;16.77;;;;;;;18.16;100.00;101495.88;5250376;28;20418;-68
2022/08/01 03:46:57;;;;;;;28.90;18.17;;;;;;;18.08;100.00;101489.50;5254815;28;20429;-67
2022/08/01 03:49:31;;;;;;;25.95;16.65;;;;;;;18.13;100.00;101487.22;5254878;28;20382;-67
2022/08/01 03:52:06;;;;;;;28.27;17.73;;;;;;;18.09;100.00;101488.53;5262792;28;20112;-67
2022/08/01 03:54:43;;;;;;;25.95;16.85;;;;;;;18.17;100.00;101492.16;5253798;28;20385;-68
2022/08/01 03:57:15;;;;;;;26.67;16.40;;;;;;;18.07;100.00;101493.22;5259861;28;20367;-68
2022/08/01 03:59:48;;;;;;;27.33;17.45;;;;;;;18.08;100.00;101489.50;5252912;28;20036;-67
2022/08/01 04:02:21;;;;;;;27.63;17.85;;;;;;;18.06;100.00;101495.06;5257540;28;20045;-68
2022/08/01 04:04:53;;;;;;;28.00;17.52;;;;;;;18.04;100.00;101486.25;5255122;28;21050;-67
2022/08/01 04:07:29;;;;;;;23.42;16.40;;;;;;;18.03;100.00;101489.97;5248682;28;20216;-68
2022/08/01 04:10:00;;;;;;;26.10;17.52;;;;;;;18.01;100.00;101494.69;5255942;28;20441;-67
2022/08/01 04:12:34;;;;;;;23.15;16.15;;;;;;;18.06;100.00;101497.75;5250327;28;20061;-67
2022/08/01 04:15:05;;;;;;;25.93;15.67;;;;;;;18.17;100.00;101499.41;5258367;28;20036;-67
2022/08/01 04:17:37;;;;;;;23.38;16.23;;;;;;;18.07;100.00;101495.94;5252326;28;20302;-68
2022/08/01 04:20:09;;;;;;;22.55;15.82;;;;;;;18.08;100.00;101495.75;5261965;28;20143;-68
2022/08/01 04:22:40;;;;;;;27.42;17.35;;;;;;;18.15;100.00;101502.25;5263956;28;20221;-67
2022/08/01 04:25:21;;;;;;;26.40;16.73;;;;;;;18.11;100.00;101503.56;5258373;28;20024;-68
2022/08/01 04:27:54;;;;;;;24.38;16.52;;;;;;;18.06;100.00;101513.97;5249307;28;20037;-67
2022/08/01 04:30:31;;;;;;;26.23;16.60;;;;;;;18.05;100.00;101503.34;5251987;28;20114;-68
2022/08/01 04:33:06;;;;;;;24.50;16.33;;;;;;;18.08;100.00;101497.63;5252402;28;20025;-68
2022/08/01 04:35:41;;;;;;;26.35;17.30;;;;;;;18.11;100.00;101503.56;5249543;28;20021;-68
2022/08/01 04:38:16;;;;;;;26.05;16.45;;;;;;;18.15;100.00;101507.66;5249061;28;20077;-67
2022/08/01 04:40:50;;;;;;;26.13;17.88;;;;;;;18.10;100.00;101514.50;5251917;28;20082;-67
2022/08/01 04:43:22;;;;;;;25.63;17.13;;;;;;;18.11;100.00;101511.66;5262604;28;20028;-67
2022/08/01 04:45:55;;;;;;;29.33;16.58;;;;;;;18.11;100.00;101510.84;5254635;28;20024;-67
2022/08/01 04:48:27;;;;;;;27.17;16.45;;;;;;;18.05;100.00;101514.13;5253914;28;20478;-68
2022/08/01 04:50:58;;;;;;;24.35;15.85;;;;;;;18.13;100.00;101512.38;5256017;28;20034;-68
2022/08/01 04:53:32;;;;;;;28.17;16.95;;;;;;;18.07;100.00;101522.94;5261038;28;20024;-68
2022/08/01 04:56:03;;;;;;;27.23;16.70;;;;;;;18.19;100.00;101527.97;5268177;28;20032;-68
2022/08/01 04:58:35;;;;;;;24.88;16.02;;;;;;;18.15;100.00;101523.88;5272373;28;21564;-68
2022/08/01 05:01:07;;;;;;;26.20;15.82;;;;;;;18.14;100.00;101527.59;5249808;28;20086;-68
2022/08/01 05:03:38;;;;;;;26.20;16.00;;;;;;;18.10;100.00;101534.28;5249124;28;20035;-67
2022/08/01 05:06:09;;;;;;;24.52;15.15;;;;;;;18.07;100.00;101529.19;5255986;28;20422;-68
2022/08/01 05:08:41;;;;;;;24.10;15.50;;;;;;;18.05;100.00;101539.28;5268284;28;20077;-67
2022/08/01 05:11:12;;;;;;;23.98;14.50;;;;;;;18.10;100.00;101542.41;5265647;28;20029;-68
2022/08/01 05:13:43;;;;;;;24.00;15.57;;;;;;;18.15;100.00;101545.47;5256049;28;20107;-68
2022/08/01 05:16:16;;;;;;;23.67;14.10;;;;;;;18.26;100.00;101544.44;5253812;28;20028;-67
2022/08/01 05:18:48;;;;;;;24.15;14.25;;;;;;;18.28;100.00;101541.59;5251881;28;20032;-67
2022/08/01 05:21:19;;;;;;;21.75;13.65;;;;;;;18.38;100.00;101539.66;5255490;28;20505;-68
2022/08/01 05:23:50;;;;;;;22.55;13.70;;;;;;;18.47;100.00;101546.88;5258877;28;20762;-68
2022/08/01 05:26:22;;;;;;;20.27;12.50;;;;;;;18.41;100.00;101547.50;5257134;28;20723;-68
2022/08/01 05:28:53;;;;;;;19.60;12.90;;;;;;;18.42;100.00;101551.88;5258760;28;20447;-68
2022/08/01 05:31:24;;;;;;;21.55;12.75;;;;;;;18.39;100.00;101541.38;5258399;28;20116;-68
2022/08/01 05:33:55;;;;;;;16.40;11.10;;;;;;;18.35;100.00;101553.47;5259445;28;20446;-68
2022/08/01 05:36:27;;;;;;;15.52;10.60;;;;;;;18.43;100.00;101556.28;5256939;28;20082;-68
2022/08/01 05:38:58;;;;;;;20.60;12.75;;;;;;;18.41;100.00;101553.72;5270716;28;20035;-68
2022/08/01 05:41:30;;;;;;;19.10;12.40;;;;;;;18.62;100.00;101544.50;5259139;28;20689;-68
2022/08/01 05:44:02;;;;;;;13.82;9.88;;;;;;;18.49;100.00;101546.72;5268635;28;20360;-68
2022/08/01 05:46:33;;;;;;;16.35;10.32;;;;;;;18.49;100.00;101550.28;5273656;28;20037;-68
2022/08/01 05:49:05;;;;;;;14.35;9.52;;;;;;;18.44;100.00;101552.56;5267408;28;20482;-69
2022/08/01 05:51:36;;;;;;;14.60;9.95;;;;;;;18.43;100.00;101550.88;5262509;28;20024;-68
2022/08/01 05:54:07;;;;;;;12.55;8.98;;;;;;;18.48;100.00;101543.16;5263570;28;20108;-68
2022/08/01 05:56:39;;;;;;;13.90;8.38;;;;;;;18.50;100.00;101554.66;5267749;28;20024;-68
2022/08/01 05:59:10;;;;;;;13.90;9.00;;;;;;;18.65;100.00;101554.16;5269944;28;20044;-68
2022/08/01 06:01:41;;;;;;;14.27;9.23;;;;;;;18.59;100.00;101561.84;5257907;28;20021;-68
2022/08/01 06:04:13;;;;;;;15.73;9.00;;;;;;;18.63;100.00;101558.88;5266126;28;20055;-68
2022/08/01 06:06:44;;;;;;;12.85;8.75;;;;;;;18.74;100.00;101572.16;5268808;28;20741;-67
2022/08/01 06:09:15;;;;;;;11.38;7.88;;;;;;;18.79;100.00;101559.00;5263651;28;20032;-69
2022/08/01 06:11:47;;;;;;;12.63;8.13;;;;;;;18.84;100.00;101559.44;5268945;28;20490;-69
2022/08/01 06:14:18;;;;;;;11.13;7.90;;;;;;;18.84;100.00;101553.19;5271576;28;20583;-69
2022/08/01 06:16:49;;;;;;;10.65;7.25;;;;;;;18.89;100.00;101550.84;5257228;28;20441;-66
2022/08/01 06:19:21;;;;;;;11.85;7.47;;;;;;;18.85;100.00;101554.88;5253231;28;20452;-68
2022/08/01 06:21:52;;;;;;;9.80;6.65;;;;;;;18.90;100.00;101552.56;5263066;28;20395;-69
2022/08/01 06:24:23;;;;;;;9.48;6.63;;;;;;;19.06;100.00;101557.28;5283728;28;20043;-68
2022/08/01 06:26:54;;;;;;;10.73;6.57;;;;;;;18.99;100.00;101557.91;5272599;28;22100;-69
2022/08/01 06:29:26;;;;;;;9.63;6.57;;;;;;;19.04;100.00;101559.28;5268639;28;20805;-69
2022/08/01 06:31:57;;;;;;;8.20;5.75;;;;;;;18.94;100.00;101571.03;5260856;28;20052;-69
2022/08/01 06:34:28;;;;;;;8.27;5.28;;;;;;;18.92;100.00;101558.66;5275910;28;20116;-69
2022/08/01 06:37:00;;;;;;;8.52;5.57;;;;;;;18.97;100.00;101569.88;5266816;28;20064;-69
2022/08/01 06:39:31;;;;;;;8.68;5.57;;;;;;;19.05;100.00;101567.25;5266834;28;20033;-70
2022/08/01 06:42:02;;;;;;;7.32;5.43;;;;;;;19.33;100.00;101570.69;5268439;28;20020;-69
2022/08/01 06:44:34;;;;;;;7.55;5.10;;;;;;;19.45;100.00;101575.88;5267549;28;20382;-69
2022/08/01 06:47:05;;;;;;;7.43;5.00;;;;;;;19.54;100.00;101577.59;5259963;28;20116;-69
2022/08/01 06:49:36;;;;;;;7.80;4.97;;;;;;;19.59;100.00;101577.97;5264649;28;20029;-69
2022/08/01 06:52:08;;;;;;;7.50;5.00;;;;;;;19.59;100.00;101588.81;5264744;28;20024;-69
2022/08/01 06:54:39;;;;;;;6.60;5.10;;;;;;;19.57;100.00;101580.84;5265749;28;20111;-69
2022/08/01 06:57:10;;;;;;;6.05;3.97;;;;;;;19.59;100.00;101586.09;5269798;28;20023;-68
2022/08/01 06:59:44;;;;;;;6.57;3.85;;;;;;;19.67;100.00;101588.03;5267818;28;20103;-69
2022/08/01 07:02:15;;;;;;;;;;;;;;;19.87;100.00;101589.53;5267874;28;20570;-69
2022/08/01 07:04:47;;;;;;;6.50;4.40;;;;;;;19.85;100.00;101579.84;5268924;28;19924;-69
2022/08/01 07:07:18;;;;;;;5.45;4.13;;;;;;;19.74;100.00;101579.13;5268559;28;20318;-69
2022/08/01 07:09:49;;;;;;;5.90;4.25;;;;;;;19.84;100.00;101576.31;5270581;28;20063;-69
2022/08/01 07:12:21;;;;;;;7.18;3.75;;;;;;;19.84;100.00;101581.72;5269881;28;20036;-69
2022/08/01 07:14:52;;;;;;;5.53;3.90;;;;;;;19.92;100.00;101586.34;5271721;28;20030;-69
2022/08/01 07:17:23;;;;;;;5.75;3.70;;;;;;;20.04;100.00;101579.66;5270440;28;20390;-69
2022/08/01 07:19:54;;;;;;;6.43;3.92;;;;;;;20.32;100.00;101587.56;5274698;28;20394;-69
2022/08/01 07:22:26;;;;;;;5.15;3.40;;;;;;;20.28;100.00;101584.31;5263389;28;20387;-69
2022/08/01 07:24:57;;;;;;;5.82;3.17;;;;;;;20.40;100.00;101584.88;5266707;28;20033;-69
2022/08/01 07:27:28;;;;;;;5.18;3.00;;;;;;;20.51;100.00;101592.69;5271949;28;20031;-69
2022/08/01 07:30:00;;;;;;;6.15;2.70;;;;;;;20.44;100.00;101597.09;5272694;28;20141;-69
2022/08/01 07:32:31;;;;;;;4.15;2.67;;;;;;;20.57;100.00;101592.03;5269824;28;20032;-70
2022/08/01 07:35:03;;;;;;;3.63;2.28;;;;;;;20.73;100.00;101596.72;5270535;28;20489;-69
2022/08/01 07:37:34;;;;;;;3.63;2.33;;;;;;;20.57;100.00;101597.47;5273138;28;20020;-69
2022/08/01 07:40:06;;;;;;;4.75;2.22;;;;;;;20.39;100.00;101596.72;5272494;28;20036;-69
2022/08/01 07:42:38;;;;;;;4.00;2.30;;;;;;;20.42;100.00;101598.25;5266212;28;20037;-68
2022/08/01 07:45:10;;;;;;;4.22;1.77;;;;;;;20.41;100.00;101605.56;5266412;28;20029;-68
2022/08/01 07:47:42;;;;;;;3.35;1.40;;;;;;;20.51;100.00;101594.56;5274084;28;20036;-68
2022/08/01 07:50:13;;;;;;;5.25;1.80;;;;;;;20.56;100.00;101594.94;5271598;28;20047;-68
2022/08/01 07:52:44;;;;;;;2.92;1.38;;;;;;;20.55;98.81;101606.78;5272243;28;20110;-68
2022/08/01 07:55:16;;;;;;;3.40;1.85;;;;;;;20.65;99.36;101610.25;5266177;28;20071;-68
2022/08/01 07:57:47;;;;;;;3.58;1.60;;;;;;;20.69;96.49;101606.19;5270397;28;20445;-69
2022/08/01 08:00:18;;;;;;;3.33;1.92;;;;;;;20.70;99.13;101597.03;5269531;28;20397;-68
2022/08/01 08:02:50;;;;;;;2.92;1.90;;;;;;;20.77;100.00;101602.66;5266852;28;20040;-68
2022/08/01 08:05:21;;;;;;;4.18;2.30;;;;;;;20.72;99.76;101599.59;5269630;28;20083;-68
2022/08/01 08:07:53;;;;;;;3.35;2.28;;;;;;;20.82;99.13;101604.84;5273005;28;20020;-68
2022/08/01 08:10:24;;;;;;;5.32;2.30;;;;;;;20.94;100.00;101601.66;5268297;28;20106;-68
2022/08/01 08:12:55;;;;;;;4.32;2.08;;;;;;;21.15;100.00;101606.63;5270001;28;20028;-68
2022/08/01 08:15:28;;;;;;;3.70;2.28;;;;;;;21.15;98.91;101612.03;5270076;28;20406;-68
2022/08/01 08:18:08;;;;;;;3.70;2.10;;;;;;;21.17;96.59;101611.88;5268975;28;20214;-69
2022/08/01 08:20:39;;;;;;;3.30;2.00;;;;;;;21.17;94.92;101611.88;5271154;28;20059;-68
2022/08/01 08:26:01;;;;;;;3.30;1.70;;;;;;;21.45;93.16;101606.97;5269424;28;20134;-68
2022/08/01 08:28:32;;;;;;;2.95;1.45;;;;;;;21.57;91.03;101607.47;5264747;28;20063;-68
2022/08/01 08:31:03;;;;;;;3.22;1.50;;;;;;;21.40;91.61;101608.47;5271993;28;20684;-68
2022/08/01 08:33:34;;;;;;;2.75;1.55;;;;;;;21.38;92.51;101618.66;5269487;28;20051;-69
2022/08/01 08:36:06;;;;;;;2.95;1.60;;;;;;;21.49;91.56;101607.47;5267345;28;20110;-69
2022/08/01 08:38:37;;;;;;;2.78;1.20;;;;;;;21.58;94.60;101603.75;5271354;28;20394;-68
2022/08/01 08:41:09;;;;;;;3.15;1.15;;;;;;;21.66;90.19;101603.72;5275843;28;20169;-68
2022/08/01 08:43:41;;;;;;;3.78;1.63;;;;;;;21.84;90.93;101610.81;5266229;28;20048;-68
2022/08/01 08:46:14;;;;;;;3.42;1.70;;;;;;;21.67;87.88;101604.56;5266784;28;20028;-69
2022/08/01 08:48:45;;;;;;;1.92;1.20;;;;;;;21.65;87.35;101606.59;5273040;28;20071;-69
2022/08/01 08:51:18;;;;;;;1.88;0.90;;;;;;;21.57;84.94;101609.34;5271685;28;20482;-69
2022/08/01 08:53:52;;;;;;;2.97;1.40;;;;;;;21.85;88.54;101612.53;5269327;28;20052;-68
2022/08/01 08:56:25;;;;;;;2.50;1.23;;;;;;;22.07;87.92;101609.09;5266244;28;20598;-69
2022/08/01 08:58:57;;;;;;;2.55;0.90;;;;;;;22.12;85.85;101619.41;5262437;28;20048;-69
2022/08/01 09:01:28;;;;;;;2.30;0.93;;;;;;;22.12;84.02;101616.69;5266971;28;20028;-69
2022/08/01 09:04:03;;;;;;;2.63;0.80;;;;;;;22.17;84.67;101613.44;5266441;28;20074;-69
2022/08/01 09:06:34;;;;;;;2.75;0.80;;;;;;;22.21;84.17;101612.94;5266841;28;20046;-69
2022/08/01 09:09:07;;;;;;;2.05;0.90;;;;;;;22.28;84.66;101623.97;5267195;28;20025;-69
2022/08/01 09:11:38;;;;;;;2.10;0.98;;;;;;;22.58;87.23;101621.50;5269762;28;20391;-69
2022/08/01 09:14:22;;;;;;;3.15;0.80;;;;;;;22.38;84.76;101629.22;5268270;28;20074;-69
2022/08/01 09:17:10;;;;;;;1.73;0.77;;;;;;;22.27;84.60;101627.75;5269218;28;20089;-69
2022/08/01 09:19:51;;;;;;;1.67;0.60;;;;;;;22.22;83.53;101624.66;5267955;28;20024;-69
2022/08/01 09:22:24;;;;;;;2.58;0.82;;;;;;;22.13;84.62;101629.28;5270700;28;20036;-69
2022/08/01 09:25:04;;;;;;;2.60;0.50;;;;;;;22.31;82.05;101629.91;5268731;28;20033;-69
2022/08/01 09:27:38;;;;;;;1.60;0.50;;;;;;;22.45;84.30;101632.94;5266369;28;20491;-69
2022/08/01 09:30:19;;;;;;;1.95;0.80;;;;;;;22.64;81.91;101631.66;5262281;28;20029;-69
2022/08/01 09:33:00;;;;;;;1.40;0.65;;;;;;;22.70;81.57;101631.81;5274253;28;20025;-69
2022/08/01 09:35:36;;;;;;;1.13;0.45;;;;;;;22.79;83.54;101629.03;5268169;28;20075;-69
2022/08/01 09:38:16;;;;;;;1.25;0.50;;;;;;;22.60;79.17;101633.88;5269166;28;20035;-69
2022/08/01 09:40:58;;;;;;;2.53;0.50;;;;;;;22.73;78.56;101627.88;5267740;28;20085;-69
2022/08/01 09:43:31;;;;;;;1.38;0.57;;;;;;;22.76;81.01;101627.50;5272667;28;20031;-69
2022/08/01 09:46:20;;;;;;;1.50;0.63;;;;;;;22.80;79.80;101634.28;5269919;28;20074;-69
2022/08/01 09:49:05;;;;;;;1.90;0.52;;;;;;;23.07;78.00;101637.56;5275075;28;20048;-69
2022/08/01 09:51:39;;;;;;;1.50;0.43;;;;;;;23.39;76.12;101641.91;5272784;28;20039;-69
2022/08/01 09:54:10;;;;;;;2.05;0.60;;;;;;;23.47;75.38;101633.69;5271443;28;20038;-69
2022/08/01 09:56:42;;;;;;;1.83;0.52;;;;;;;23.42;76.88;101635.25;5271093;28;20032;-69
2022/08/01 09:59:14;;;;;;;1.77;0.55;;;;;;;23.25;73.59;101642.69;5271173;28;20045;-69
2022/08/01 10:01:47;;;;;;;2.65;0.63;;;;;;;23.03;74.23;101645.25;5265026;28;20043;-69
2022/08/01 10:04:20;;;;;;;1.98;0.70;;;;;;;22.87;74.98;101637.97;5275634;28;20478;-69
2022/08/01 10:07:07;;;;;;;1.20;0.60;;;;;;;23.26;77.39;101638.94;5274052;28;20107;-69
2022/08/01 10:09:38;;;;;;;1.45;0.65;;;;;;;23.08;74.14;101641.97;5273672;28;20028;-69
2022/08/01 10:12:11;;;;;;;2.33;0.68;;;;;;;23.18;73.58;101637.13;5268993;28;20510;-69
2022/08/01 10:14:45;;;;;;;1.52;0.68;;;;;;;23.61;76.39;101642.06;5275404;28;20036;-69
2022/08/01 10:17:18;;;;;;;2.05;0.80;;;;;;;23.63;71.87;101635.41;5270755;28;20031;-69
2022/08/01 10:19:54;;;;;;;2.25;0.68;;;;;;;23.76;71.30;101642.09;5272857;28;20029;-69
2022/08/01 10:22:27;;;;;;;2.30;0.90;;;;;;;23.74;69.48;101644.16;5266462;28;20383;-69
2022/08/01 10:25:03;;;;;;;2.10;0.80;;;;;;;24.11;74.08;101642.47;5273072;28;20029;-69
2022/08/01 10:27:37;;;;;;;3.47;1.40;;;;;;;23.92;73.31;101639.25;5272861;28;20286;-68
2022/08/01 10:30:09;;;;;;;3.80;1.50;;;;;;;23.71;73.84;101650.00;5271959;28;20107;-68
2022/08/01 10:32:42;;;;;;;4.07;1.77;;;;;;;23.41;75.46;101658.91;5266198;28;20032;-69
2022/08/01 10:35:17;;;;;;;3.67;1.63;;;;;;;23.17;77.40;101659.94;5261755;28;20035;-68
2022/08/01 10:37:50;;;;;;;4.70;1.58;;;;;;;23.02;77.85;101653.56;5269529;28;20279;-68
2022/08/01 10:40:22;;;;;;;2.70;1.40;;;;;;;23.12;79.47;101651.47;5270123;28;20024;-68
2022/08/01 10:42:54;;;;;;;2.20;1.10;;;;;;;23.14;79.24;101651.28;5274989;28;20719;-69
2022/08/01 10:45:26;;;;;;;2.28;1.20;;;;;;;22.97;78.67;101659.50;5271227;28;20033;-69
2022/08/01 10:48:07;;;;;;;2.65;1.27;;;;;;;22.97;79.42;101645.91;5268500;28;20107;-68
2022/08/01 10:50:43;;;;;;;3.22;1.10;;;;;;;22.86;78.21;101643.63;5276246;28;20107;-68
2022/08/01 10:53:20;;;;;;;2.92;1.20;;;;;;;22.82;79.18;101648.56;5269133;28;20078;-68
2022/08/01 10:55:56;;;;;;;1.55;0.77;;;;;;;22.96;79.31;101651.56;5264753;28;20033;-68
2022/08/01 10:58:38;;;;;;;3.88;1.25;;;;;;;22.90;79.44;101662.13;5265608;28;20045;-68
2022/08/01 11:01:15;;;;;;;3.08;0.73;;;;;;;23.04;80.83;101663.25;5271007;28;20119;-68
2022/08/01 11:04:03;;;;;;;2.25;1.10;;;;;;;23.05;82.51;101664.09;5273683;28;20036;-68
2022/08/01 11:06:41;;;;;;;2.38;0.90;;;;;;;22.79;81.29;101675.28;5265791;28;20398;-68
2022/08/01 11:09:12;;;;;;;2.67;1.15;;;;;;;22.57;79.58;101675.03;5276056;28;20042;-68
2022/08/01 11:12:13;;;;;;;3.22;0.90;;;;;;;22.82;80.56;101681.22;5266923;28;20028;-68
2022/08/01 11:15:00;;;;;;;2.00;1.08;;;;;;;22.69;79.62;101672.78;5307477;28;20120;-68
2022/08/01 11:17:48;;;;;;;2.65;1.20;;;;;;;22.64;78.70;101680.63;5264562;28;20379;-68
2022/08/01 11:20:22;;;;;;;3.70;1.00;;;;;;;22.65;79.22;101685.03;5267338;28;20029;-68
2022/08/01 11:23:06;;;;;;;2.22;0.90;;;;;;;22.34;79.87;101684.97;5276005;28;20567;-68
2022/08/01 11:25:37;;;;;;;1.95;0.88;;;;;;;22.60;80.01;101677.41;5270506;28;20033;-69
2022/08/01 11:28:17;;;;;;;1.98;0.60;;;;;;;22.41;77.99;101677.81;5268905;28;20038;-68
2022/08/01 11:31:14;;;;;;;2.45;0.85;;;;;;;22.36;76.08;101693.78;5274422;28;20029;-68
2022/08/01 11:33:46;;;;;;;1.75;0.70;;;;;;;22.68;76.67;101685.50;5264847;28;20043;-68
2022/08/01 11:36:20;;;;;;;2.08;0.80;;;;;;;22.86;78.92;101690.72;5267846;28;20390;-68
2022/08/01 11:38:57;;;;;;;2.47;0.60;;;;;;;22.92;76.16;101689.16;5273031;28;20399;-68
2022/08/01 11:41:33;;;;;;;2.45;0.73;;;;;;;22.96;77.54;101689.66;5266808;28;20060;-68
2022/08/01 11:44:08;;;;;;;2.42;0.70;;;;;;;22.74;75.99;101688.56;5273974;28;20470;-69
2022/08/01 11:46:48;;;;;;;2.33;0.63;;;;;;;22.89;74.90;101697.66;5269110;28;20033;-68